createdAt,value
2022-09-18T00:02:15.630Z,10.59
2022-09-18T00:04:44.900Z,10.61
2022-09-18T00:07:13.014Z,10.51
2022-09-18T00:10:09.086Z,10.57
2022-09-18T00:12:38.237Z,10.64
2022-09-18T00:15:07.944Z,10.52
2022-09-18T00:17:36.046Z,10.45
2022-09-18T00:20:07.724Z,10.41
2022-09-18T00:22:43.261Z,10.55
2022-09-18T00:25:13.666Z,10.40
2022-09-18T00:27:41.845Z,10.38
2022-09-18T00:30:11.670Z,10.36
2022-09-18T00:32:40.683Z,10.23
2022-09-18T00:35:09.778Z,10.25
2022-09-18T00:37:38.990Z,10.23
2022-09-18T00:40:15.733Z,10.20
2022-09-18T00:42:44.992Z,10.12
2022-09-18T00:45:16.327Z,10.07
2022-09-18T00:47:48.989Z,10.02
2022-09-18T00:50:21.459Z,10.17
2022-09-18T00:52:55.653Z,10.06
2022-09-18T00:55:31.164Z,9.93
2022-09-18T00:58:03.216Z,9.97
2022-09-18T01:01:20.422Z,9.89
2022-09-18T01:03:48.592Z,9.94
2022-09-18T01:06:27.418Z,9.94
2022-09-18T01:09:06.230Z,9.93
2022-09-18T01:11:41.796Z,9.87
2022-09-18T01:14:26.682Z,9.92
2022-09-18T01:17:02.259Z,9.90
2022-09-18T01:19:52.593Z,9.92
2022-09-18T01:22:33.256Z,9.92
2022-09-18T01:25:16.712Z,9.93
2022-09-18T01:28:04.549Z,9.92
2022-09-18T01:30:49.074Z,9.89
2022-09-18T01:33:26.180Z,9.94
2022-09-18T01:35:58.568Z,9.96
2022-09-18T01:38:33.375Z,9.83
2022-09-18T01:41:06.421Z,9.87
2022-09-18T01:43:37.919Z,9.83
2022-09-18T01:46:19.684Z,9.86
2022-09-18T01:48:55.353Z,9.79
2022-09-18T01:51:27.652Z,9.82
2022-09-18T01:54:00.824Z,9.85
2022-09-18T01:56:35.401Z,9.81
2022-09-18T01:59:10.973Z,9.74
2022-09-18T02:01:50.998Z,9.71
2022-09-18T02:04:24.340Z,9.65
2022-09-18T02:07:00.759Z,9.69
2022-09-18T02:09:30.423Z,9.63
2022-09-18T02:12:01.560Z,9.55
2022-09-18T02:14:39.824Z,9.49
2022-09-18T02:17:35.507Z,9.49
2022-09-18T02:20:10.356Z,9.42
2022-09-18T02:22:39.742Z,9.39
2022-09-18T02:25:11.214Z,9.44
2022-09-18T02:27:45.477Z,9.47
2022-09-18T02:30:16.440Z,9.44
2022-09-18T02:32:45.775Z,9.41
2022-09-18T02:35:15.693Z,9.28
2022-09-18T02:37:56.153Z,9.35
2022-09-18T02:40:35.626Z,9.37
2022-09-18T02:43:15.202Z,9.39
2022-09-18T02:45:52.002Z,9.39
2022-09-18T02:48:38.087Z,9.41
2022-09-18T02:51:15.472Z,9.45
2022-09-18T02:53:51.316Z,9.37
2022-09-18T02:56:28.871Z,9.48
2022-09-18T02:59:05.187Z,9.45
2022-09-18T03:01:36.914Z,9.38
2022-09-18T03:04:06.613Z,9.31
2022-09-18T03:06:49.453Z,9.30
2022-09-18T03:09:17.981Z,9.30
2022-09-18T03:11:47.182Z,9.30
2022-09-18T03:14:17.869Z,9.27
2022-09-18T03:16:52.335Z,9.30
2022-09-18T03:19:22.832Z,9.34
2022-09-18T03:21:53.026Z,9.31
2022-09-18T03:24:25.867Z,9.30
2022-09-18T03:26:55.592Z,9.32
2022-09-18T03:29:27.323Z,9.38
2022-09-18T03:32:03.753Z,9.30
2022-09-18T03:34:40.023Z,9.31
2022-09-18T03:37:09.247Z,9.30
2022-09-18T03:39:39.408Z,9.35
2022-09-18T03:42:10.881Z,9.30
2022-09-18T03:44:40.027Z,9.31
2022-09-18T03:47:20.141Z,9.24
2022-09-18T03:49:49.169Z,9.31
2022-09-18T03:52:17.480Z,9.34
2022-09-18T03:54:55.089Z,9.47
2022-09-18T03:57:46.430Z,9.39
2022-09-18T04:00:31.406Z,9.48
2022-09-18T04:03:10.252Z,9.39
2022-09-18T04:05:58.673Z,9.42
2022-09-18T04:08:47.294Z,9.47
2022-09-18T04:11:32.179Z,9.52
2022-09-18T04:14:00.510Z,9.61
2022-09-18T04:16:30.650Z,9.61
2022-09-18T04:19:00.535Z,9.61
2022-09-18T04:21:28.777Z,9.61
2022-09-18T04:24:01.170Z,9.56
2022-09-18T04:26:30.367Z,9.56
2022-09-18T04:29:03.671Z,9.52
2022-09-18T04:31:32.523Z,9.45
2022-09-18T04:34:07.787Z,9.47
2022-09-18T04:36:38.366Z,9.44
2022-09-18T04:39:10.180Z,9.49
2022-09-18T04:41:39.653Z,9.55
2022-09-18T04:44:09.728Z,9.56
2022-09-18T04:46:40.292Z,9.59
2022-09-18T04:49:16.938Z,9.52
2022-09-18T04:51:45.359Z,9.49
2022-09-18T04:54:15.687Z,9.45
2022-09-18T04:56:45.509Z,9.58
2022-09-18T04:59:14.271Z,9.71
2022-09-18T05:01:52.839Z,9.68
2022-09-18T05:04:23.036Z,9.62
2022-09-18T05:06:57.749Z,9.63
2022-09-18T05:09:26.124Z,9.69
2022-09-18T05:11:55.248Z,9.59
2022-09-18T05:14:26.315Z,9.71
2022-09-18T05:17:00.040Z,9.76
2022-09-18T05:19:37.291Z,9.82
2022-09-18T05:22:14.632Z,9.90
2022-09-18T05:24:48.981Z,9.89
2022-09-18T05:27:17.264Z,9.90
2022-09-18T05:29:47.590Z,9.97
2022-09-18T05:32:20.495Z,10.04
2022-09-18T05:34:51.541Z,10.09
2022-09-18T05:37:20.137Z,10.07
2022-09-18T05:39:54.365Z,10.16
2022-09-18T05:42:24.560Z,10.27
2022-09-18T05:44:52.723Z,10.33
2022-09-18T05:47:26.955Z,10.44
2022-09-18T05:49:56.870Z,10.50
2022-09-18T05:52:26.071Z,10.51
2022-09-18T05:54:54.737Z,10.47
2022-09-18T05:57:23.043Z,10.41
2022-09-18T05:59:52.968Z,10.45
2022-09-18T06:02:21.295Z,10.37
2022-09-18T06:05:15.161Z,10.37
2022-09-18T06:07:43.427Z,10.37
2022-09-18T06:10:11.576Z,10.31
2022-09-18T06:12:39.951Z,10.37
2022-09-18T06:15:10.611Z,10.30
2022-09-18T06:17:38.818Z,10.25
2022-09-18T06:20:08.736Z,10.34
2022-09-18T06:22:38.566Z,10.54
2022-09-18T06:25:12.885Z,10.72
2022-09-18T06:27:41.184Z,10.85
2022-09-18T06:30:10.286Z,10.99
2022-09-18T06:32:38.420Z,11.10
2022-09-18T06:35:07.995Z,11.26
2022-09-18T06:37:37.972Z,11.31
2022-09-18T06:40:14.038Z,11.41
2022-09-18T06:43:05.356Z,11.48
2022-09-18T06:45:53.648Z,11.67
2022-09-18T06:48:24.470Z,11.72
2022-09-18T06:50:54.186Z,11.88
2022-09-18T06:53:27.260Z,11.83
2022-09-18T06:56:03.410Z,11.89
2022-09-18T06:58:36.100Z,11.82
2022-09-18T07:01:04.355Z,11.89
2022-09-18T07:03:39.839Z,11.98
2022-09-18T07:06:16.894Z,11.95
2022-09-18T07:08:50.012Z,12.08
2022-09-18T07:11:30.509Z,12.23
2022-09-18T07:14:01.052Z,12.29
2022-09-18T07:16:30.335Z,12.50
2022-09-18T07:18:58.685Z,12.58
2022-09-18T07:21:26.966Z,12.50
2022-09-18T07:23:56.576Z,12.73
2022-09-18T07:26:24.949Z,12.73
2022-09-18T07:28:53.416Z,12.88
2022-09-18T07:31:27.277Z,12.84
2022-09-18T07:33:58.141Z,12.98
2022-09-18T07:36:29.273Z,13.12
2022-09-18T07:38:59.016Z,13.13
2022-09-18T07:41:34.640Z,13.04
2022-09-18T07:44:03.480Z,12.89
2022-09-18T07:46:31.729Z,12.78
2022-09-18T07:49:04.202Z,12.51
2022-09-18T07:51:33.429Z,12.44
2022-09-18T07:54:04.227Z,12.44
2022-09-18T07:56:55.264Z,12.43
2022-09-18T07:59:28.311Z,12.34
2022-09-18T08:02:00.682Z,12.36
2022-09-18T08:04:33.030Z,12.37
2022-09-18T08:07:21.623Z,12.43
2022-09-18T08:10:12.437Z,12.53
2022-09-18T08:13:09.444Z,12.65
2022-09-18T08:15:56.345Z,12.60
2022-09-18T08:18:47.458Z,12.67
2022-09-18T08:21:38.257Z,12.69
2022-09-18T08:24:10.418Z,12.73
2022-09-18T08:26:40.315Z,12.63
2022-09-18T08:29:08.711Z,12.44
2022-09-18T08:31:39.192Z,12.56
2022-09-18T08:34:11.546Z,12.44
2022-09-18T08:36:40.313Z,12.48
2022-09-18T08:39:16.225Z,12.53
2022-09-18T08:42:25.986Z,12.60
2022-09-18T08:45:00.527Z,12.48
2022-09-18T08:47:34.426Z,12.61
2022-09-18T08:50:07.899Z,12.57
2022-09-18T08:52:42.269Z,12.61
2022-09-18T08:55:27.663Z,12.63
2022-09-18T08:58:11.632Z,12.71
2022-09-18T09:00:48.108Z,12.69
2022-09-18T09:03:47.038Z,12.83
2022-09-18T09:06:27.614Z,13.40
2022-09-18T09:09:28.543Z,13.42
2022-09-18T09:12:11.548Z,13.50
2022-09-18T09:14:58.865Z,13.09
2022-09-18T09:17:41.475Z,13.19
2022-09-18T09:20:23.419Z,13.16
2022-09-18T09:23:03.014Z,13.08
2022-09-18T09:25:40.532Z,12.95
2022-09-18T09:28:25.672Z,12.83
2022-09-18T09:31:20.783Z,12.80
2022-09-18T09:34:29.558Z,12.57
2022-09-18T09:37:20.412Z,12.64
2022-09-18T09:39:53.602Z,12.54
2022-09-18T09:42:26.225Z,12.48
2022-09-18T09:44:59.842Z,12.50
2022-09-18T09:47:35.963Z,12.51
2022-09-18T09:50:24.894Z,12.64
2022-09-18T09:52:59.818Z,12.64
2022-09-18T09:55:31.847Z,12.53
2022-09-18T09:58:11.425Z,12.43
2022-09-18T10:00:49.230Z,12.50
2022-09-18T10:03:29.137Z,12.60
2022-09-18T10:06:07.272Z,12.74
2022-09-18T10:08:44.337Z,12.80
2022-09-18T10:11:16.677Z,12.74
2022-09-18T10:13:56.801Z,12.77
2022-09-18T10:16:34.043Z,12.98
2022-09-18T10:19:05.601Z,13.08
2022-09-18T10:21:37.322Z,13.04
2022-09-18T10:24:18.191Z,13.22
2022-09-18T10:26:50.965Z,13.36
2022-09-18T10:29:20.047Z,13.49
2022-09-18T10:31:56.075Z,13.38
2022-09-18T10:34:40.584Z,13.71
2022-09-18T10:37:15.895Z,14.28
2022-09-18T10:39:52.442Z,14.32
2022-09-18T10:42:24.688Z,14.42
2022-09-18T10:45:02.024Z,14.91
2022-09-18T10:47:36.536Z,14.62
2022-09-18T10:50:18.196Z,15.04
2022-09-18T10:52:49.288Z,15.04
2022-09-18T10:55:26.692Z,15.21
2022-09-18T10:58:06.800Z,14.91
2022-09-18T11:00:39.968Z,15.45
2022-09-18T11:03:21.744Z,15.45
2022-09-18T11:05:56.808Z,14.84
2022-09-18T11:08:31.149Z,15.05
2022-09-18T11:11:14.272Z,15.34
2022-09-18T11:13:56.125Z,15.32
2022-09-18T11:16:34.481Z,15.45
2022-09-18T11:19:29.026Z,15.25
2022-09-18T11:22:04.379Z,15.21
2022-09-18T11:24:44.049Z,15.22
2022-09-18T11:27:21.542Z,15.18
2022-09-18T11:29:52.511Z,14.94
2022-09-18T11:32:25.357Z,14.95
2022-09-18T11:35:02.829Z,15.00
2022-09-18T11:37:39.260Z,15.12
2022-09-18T11:40:16.212Z,15.08
2022-09-18T11:42:46.541Z,15.36
2022-09-18T11:45:38.725Z,16.01
2022-09-18T11:48:19.405Z,16.48
2022-09-18T11:50:54.284Z,16.32
2022-09-18T11:53:27.366Z,16.35
2022-09-18T11:56:03.139Z,16.22
2022-09-18T11:58:36.620Z,15.97
2022-09-18T12:01:16.724Z,15.55
2022-09-18T12:03:51.935Z,16.06
2022-09-18T12:06:28.838Z,16.45
2022-09-18T12:09:05.199Z,16.52
2022-09-18T12:11:40.626Z,16.56
2022-09-18T12:14:17.216Z,16.34
2022-09-18T12:17:01.245Z,16.01
2022-09-18T12:19:39.811Z,15.80
2022-09-18T12:22:16.632Z,16.07
2022-09-18T12:24:48.768Z,16.24
2022-09-18T12:27:32.782Z,16.48
2022-09-18T12:30:10.097Z,16.45
2022-09-18T12:33:01.142Z,16.55
2022-09-18T12:35:47.308Z,16.42
2022-09-18T12:38:21.167Z,16.26
2022-09-18T12:41:07.227Z,16.65
2022-09-18T12:44:07.621Z,16.87
2022-09-18T12:46:56.120Z,16.40
2022-09-18T12:49:55.366Z,16.44
2022-09-18T12:52:34.043Z,16.59
2022-09-18T12:55:32.208Z,17.13
2022-09-18T12:58:17.863Z,17.23
2022-09-18T13:00:48.598Z,16.96
2022-09-18T13:03:21.576Z,16.96
2022-09-18T13:05:54.686Z,16.68
2022-09-18T13:08:28.478Z,16.40
2022-09-18T13:11:01.098Z,16.29
2022-09-18T13:13:39.445Z,16.08
2022-09-18T13:16:14.810Z,16.03
2022-09-18T13:18:49.407Z,15.86
2022-09-18T13:21:24.274Z,15.60
2022-09-18T13:23:55.383Z,15.05
2022-09-18T13:26:27.327Z,14.17
2022-09-18T13:28:57.759Z,13.49
2022-09-18T13:31:30.222Z,13.46
2022-09-18T13:34:02.609Z,13.46
2022-09-18T13:36:34.975Z,13.08
2022-09-18T13:39:07.940Z,12.83
2022-09-18T13:41:44.842Z,12.32
2022-09-18T13:44:21.120Z,12.01
2022-09-18T13:46:52.149Z,11.81
2022-09-18T13:49:28.413Z,11.98
2022-09-18T13:51:57.685Z,12.16
2022-09-18T13:54:29.436Z,12.30
2022-09-18T13:57:22.538Z,12.53
2022-09-18T13:59:55.683Z,12.83
2022-09-18T14:02:33.076Z,13.33
2022-09-18T14:05:34.787Z,13.60
2022-09-18T14:08:10.668Z,13.54
2022-09-18T14:10:54.889Z,13.85
2022-09-18T14:13:37.029Z,13.85
2022-09-18T14:16:17.280Z,13.63
2022-09-18T14:18:58.362Z,13.38
2022-09-18T14:21:31.981Z,13.11
2022-09-18T14:24:23.282Z,12.96
2022-09-18T14:27:01.429Z,12.69
2022-09-18T14:29:34.860Z,12.63
2022-09-18T14:32:05.547Z,12.46
2022-09-18T14:34:39.198Z,12.30
2022-09-18T14:37:26.772Z,12.23
2022-09-18T14:39:55.990Z,12.36
2022-09-18T14:42:33.114Z,12.44
2022-09-18T14:45:16.136Z,12.68
2022-09-18T14:47:47.890Z,12.89
2022-09-18T14:50:25.209Z,13.05
2022-09-18T14:52:53.524Z,13.01
2022-09-18T14:55:31.980Z,13.05
2022-09-18T14:58:06.139Z,13.25
2022-09-18T15:00:37.499Z,13.22
2022-09-18T15:03:14.450Z,13.22
2022-09-18T15:05:42.820Z,13.32
2022-09-18T15:08:17.133Z,13.46
2022-09-18T15:10:48.868Z,13.43
2022-09-18T15:13:18.413Z,13.39
2022-09-18T15:15:47.464Z,13.35
2022-09-18T15:18:23.706Z,13.32
2022-09-18T15:20:53.490Z,13.29
2022-09-18T15:23:28.304Z,13.15
2022-09-18T15:26:01.521Z,13.06
2022-09-18T15:28:32.068Z,13.12
2022-09-18T15:31:03.672Z,13.12
2022-09-18T15:33:35.581Z,13.01
2022-09-18T15:36:05.638Z,12.95
2022-09-18T15:38:41.456Z,13.06
2022-09-18T15:41:24.814Z,13.18
2022-09-18T15:43:53.212Z,13.26
2022-09-18T15:46:30.888Z,13.12
2022-09-18T15:49:05.391Z,13.13
2022-09-18T15:51:34.714Z,12.98
2022-09-18T15:54:07.644Z,12.73
2022-09-18T15:56:39.746Z,12.58
2022-09-18T15:59:18.510Z,12.46
2022-09-18T16:01:48.868Z,12.30
2022-09-18T16:04:21.467Z,12.36
2022-09-18T16:06:54.414Z,12.28
2022-09-18T16:09:33.880Z,12.25
2022-09-18T16:12:02.586Z,12.13
2022-09-18T16:14:50.251Z,11.96
2022-09-18T16:17:36.963Z,11.95
2022-09-18T16:20:30.255Z,11.88
2022-09-18T16:23:06.214Z,11.86
2022-09-18T16:25:37.498Z,11.82
2022-09-18T16:28:20.079Z,11.77
2022-09-18T16:30:48.681Z,11.83
2022-09-18T16:33:19.794Z,11.79
2022-09-18T16:35:56.177Z,11.72
2022-09-18T16:38:24.967Z,11.81
2022-09-18T16:40:53.137Z,11.78
2022-09-18T16:43:21.693Z,11.70
2022-09-18T16:45:50.335Z,11.67
2022-09-18T16:48:19.505Z,11.78
2022-09-18T16:50:49.169Z,11.67
2022-09-18T16:53:24.390Z,11.70
2022-09-18T16:55:57.322Z,11.74
2022-09-18T16:58:28.404Z,11.75
2022-09-18T17:00:56.905Z,11.75
2022-09-18T17:03:26.603Z,11.78
2022-09-18T17:05:56.469Z,11.79
2022-09-18T17:08:24.907Z,11.71
2022-09-18T17:10:53.478Z,11.78
2022-09-18T17:13:22.712Z,11.68
2022-09-18T17:15:51.602Z,11.65
2022-09-18T17:18:20.165Z,11.64
2022-09-18T17:20:48.805Z,11.61
2022-09-18T17:23:19.804Z,11.65
2022-09-18T17:25:48.463Z,11.70
2022-09-18T17:28:18.816Z,11.74
2022-09-18T17:30:48.031Z,11.75
2022-09-18T17:33:20.376Z,11.75
2022-09-18T17:35:50.199Z,11.74
2022-09-18T17:38:20.420Z,11.91
2022-09-18T17:40:58.006Z,11.92
2022-09-18T17:43:26.951Z,11.89
2022-09-18T17:45:57.507Z,11.88
2022-09-18T17:48:28.306Z,11.78
2022-09-18T17:51:01.045Z,11.83
2022-09-18T17:53:34.339Z,11.83
2022-09-18T17:56:06.150Z,11.82
2022-09-18T17:58:42.035Z,11.88
2022-09-18T18:01:11.567Z,11.98
2022-09-18T18:03:40.416Z,11.96
2022-09-18T18:06:11.121Z,12.01
2022-09-18T18:08:40.974Z,11.93
2022-09-18T18:11:11.139Z,11.96
2022-09-18T18:13:40.495Z,12.02
2022-09-18T18:16:10.605Z,12.05
2022-09-18T18:18:39.853Z,12.06
2022-09-18T18:21:10.219Z,12.08
2022-09-18T18:23:39.060Z,12.06
2022-09-18T18:26:11.434Z,12.09
2022-09-18T18:28:41.848Z,11.96
2022-09-18T18:31:12.579Z,11.89
2022-09-18T18:33:43.011Z,11.79
2022-09-18T18:36:13.998Z,11.70
2022-09-18T18:38:43.890Z,11.78
2022-09-18T18:41:23.157Z,11.78
2022-09-18T18:43:58.058Z,11.71
2022-09-18T18:46:29.150Z,11.79
2022-09-18T18:49:02.306Z,11.75
2022-09-18T18:51:33.391Z,11.79
2022-09-18T18:54:02.944Z,11.77
2022-09-18T18:56:35.031Z,11.82
2022-09-18T18:59:05.793Z,11.61
2022-09-18T19:01:34.915Z,11.55
2022-09-18T19:04:07.322Z,11.40
2022-09-18T19:06:36.787Z,11.41
2022-09-18T19:09:07.911Z,11.28
2022-09-18T19:11:42.912Z,11.47
2022-09-18T19:14:14.760Z,11.43
2022-09-18T19:16:43.414Z,11.40
2022-09-18T19:19:13.139Z,11.47
2022-09-18T19:21:41.688Z,11.16
2022-09-18T19:24:12.148Z,11.15
2022-09-18T19:26:43.436Z,11.17
2022-09-18T19:29:13.817Z,11.17
2022-09-18T19:31:46.579Z,11.16
2022-09-18T19:34:17.118Z,11.19
2022-09-18T19:36:50.547Z,11.24
2022-09-18T19:39:19.760Z,11.19
2022-09-18T19:41:53.481Z,11.15
2022-09-18T19:44:30.050Z,11.15
2022-09-18T19:47:01.378Z,11.17
2022-09-18T19:49:33.315Z,11.16
2022-09-18T19:52:18.221Z,11.20
2022-09-18T19:54:50.206Z,11.16
2022-09-18T19:57:21.127Z,11.06
2022-09-18T19:59:52.732Z,11.09
2022-09-18T20:02:21.897Z,11.09
2022-09-18T20:04:50.232Z,11.02
2022-09-18T20:07:18.518Z,11.13
2022-09-18T20:09:46.749Z,11.10
2022-09-18T20:12:14.924Z,11.13
2022-09-18T20:14:44.494Z,11.23
2022-09-18T20:17:12.814Z,11.26
2022-09-18T20:19:40.944Z,11.33
2022-09-18T20:22:09.261Z,11.38
2022-09-18T20:24:37.414Z,11.31
2022-09-18T20:27:05.984Z,11.17
2022-09-18T20:29:34.610Z,11.09
2022-09-18T20:32:04.293Z,11.10
2022-09-18T20:34:32.485Z,10.98
2022-09-18T20:37:00.693Z,10.95
2022-09-18T20:39:29.388Z,11.10
2022-09-18T20:42:00.591Z,10.99
2022-09-18T20:44:29.596Z,11.03
2022-09-18T20:46:59.997Z,11.22
2022-09-18T20:49:34.600Z,11.24
2022-09-18T20:52:03.713Z,11.09
2022-09-18T20:54:31.986Z,11.02
2022-09-18T20:57:01.512Z,11.00
2022-09-18T20:59:31.633Z,11.00
2022-09-18T21:01:59.957Z,11.06
2022-09-18T21:04:29.835Z,11.12
2022-09-18T21:06:58.941Z,11.17
2022-09-18T21:09:29.276Z,11.23
2022-09-18T21:11:57.698Z,11.30
2022-09-18T21:14:27.555Z,11.38
2022-09-18T21:16:56.163Z,11.51
2022-09-18T21:19:26.441Z,11.60
2022-09-18T21:21:56.818Z,11.61
2022-09-18T21:24:26.175Z,11.67
2022-09-18T21:26:54.337Z,11.75
2022-09-18T21:29:25.267Z,11.72
2022-09-18T21:31:55.116Z,11.75
2022-09-18T21:34:26.778Z,11.82
2022-09-18T21:36:58.272Z,11.72
2022-09-18T21:39:28.846Z,11.72
2022-09-18T21:41:58.010Z,11.72
2022-09-18T21:44:29.237Z,11.65
2022-09-18T21:46:59.017Z,11.61
2022-09-18T21:49:27.783Z,11.78
2022-09-18T21:51:58.839Z,11.75
2022-09-18T21:54:28.127Z,11.88
2022-09-18T21:56:56.689Z,11.92
2022-09-18T21:59:26.636Z,11.99
2022-09-18T22:01:55.610Z,11.98
2022-09-18T22:04:26.345Z,12.01
2022-09-18T22:07:00.432Z,12.06
2022-09-18T22:09:30.631Z,11.98
2022-09-18T22:12:02.064Z,12.05
2022-09-18T22:14:32.430Z,12.13
2022-09-18T22:17:01.643Z,12.16
2022-09-18T22:19:29.879Z,12.15
2022-09-18T22:21:59.419Z,12.16
2022-09-18T22:24:28.902Z,12.18
2022-09-18T22:26:59.405Z,12.22
2022-09-18T22:29:29.924Z,12.25
2022-09-18T22:31:59.499Z,12.29
2022-09-18T22:34:30.072Z,12.30
2022-09-18T22:37:00.459Z,12.29
2022-09-18T22:39:28.722Z,12.23
2022-09-18T22:41:57.072Z,12.20
2022-09-18T22:44:25.608Z,12.23
2022-09-18T22:46:55.819Z,12.22
2022-09-18T22:49:24.658Z,12.28
2022-09-18T22:51:53.359Z,12.26
2022-09-18T22:54:35.422Z,12.29
2022-09-18T22:57:05.731Z,12.28
2022-09-18T22:59:34.061Z,12.22
2022-09-18T23:02:04.419Z,12.23
2022-09-18T23:04:33.791Z,12.20
2022-09-18T23:07:02.581Z,12.19
2022-09-18T23:09:32.549Z,12.20
2022-09-18T23:12:01.006Z,12.15
2022-09-18T23:14:31.183Z,12.19
2022-09-18T23:17:00.662Z,12.18
2022-09-18T23:19:30.545Z,12.12
2022-09-18T23:21:58.983Z,12.08
2022-09-18T23:24:27.758Z,12.05
2022-09-18T23:26:59.169Z,11.96
2022-09-18T23:29:28.687Z,11.91
2022-09-18T23:31:58.368Z,11.96
2022-09-18T23:34:29.622Z,11.99
2022-09-18T23:36:58.603Z,11.93
2022-09-18T23:39:28.856Z,11.98
2022-09-18T23:41:59.447Z,11.98
2022-09-18T23:44:30.603Z,11.99
2022-09-18T23:46:59.303Z,11.83
2022-09-18T23:49:27.547Z,11.75
2022-09-18T23:51:56.122Z,11.72
2022-09-18T23:54:25.921Z,11.79
2022-09-18T23:56:55.600Z,11.68
2022-09-18T23:59:27.073Z,11.50
